Time;durP1;ratioP1;P1;durP2;ratioP2;P2;SDS_P1;SDS_P2;PMS_P1;PMS_P2;Temp;Humidity;BMP_temperature;BMP_pressure;BME280_temperature;BME280_humidity;BME280_pressure;Samples;Min_cycle;Max_cycle;Signal;HPM_P1;HPM_P2
2022/05/04 00:01:46;;;;;;;8.95;4.25;;;15.60;75.90;;;;;;5054969;28;20111;-65
2022/05/04 00:04:12;;;;;;;18.77;4.53;;;15.60;76.20;;;;;;5054904;28;20064;-65
2022/05/04 00:06:37;;;;;;;13.00;4.10;;;15.60;75.90;;;;;;5054726;28;20064;-65
2022/05/04 00:09:03;;;;;;;7.25;4.25;;;15.60;75.70;;;;;;5054348;28;20045;-65
2022/05/04 00:11:29;;;;;;;12.13;3.80;;;15.60;76.00;;;;;;5054649;28;20056;-65
2022/05/04 00:13:55;;;;;;;5.22;3.75;;;15.60;75.60;;;;;;5054701;28;20061;-65
2022/05/04 00:16:21;;;;;;;6.72;4.13;;;15.60;75.10;;;;;;5054878;28;20561;-65
2022/05/04 00:18:46;;;;;;;6.85;3.40;;;15.60;74.90;;;;;;5054543;28;20045;-65
2022/05/04 00:21:12;;;;;;;6.00;3.80;;;15.60;74.80;;;;;;5054605;28;20033;-65
2022/05/04 00:23:38;;;;;;;9.98;4.18;;;15.60;74.60;;;;;;5054076;28;20045;-65
2022/05/04 00:26:04;;;;;;;11.20;3.78;;;15.50;74.40;;;;;;5054713;28;20033;-65
2022/05/04 00:28:30;;;;;;;5.03;3.78;;;15.50;74.40;;;;;;5054388;28;20060;-65
2022/05/04 00:30:55;;;;;;;6.68;3.95;;;15.50;74.40;;;;;;5054577;28;20040;-65
2022/05/04 00:33:21;;;;;;;5.07;3.58;;;15.50;74.50;;;;;;5053845;28;20450;-65
2022/05/04 00:35:47;;;;;;;5.15;3.95;;;15.50;74.80;;;;;;5053447;28;20041;-65
2022/05/04 00:38:12;;;;;;;7.15;3.55;;;15.40;74.90;;;;;;5054196;28;20079;-66
2022/05/04 00:40:38;;;;;;;13.57;4.57;;;15.40;74.50;;;;;;5054487;28;20040;-65
2022/05/04 00:43:04;;;;;;;6.50;3.80;;;15.40;74.50;;;;;;5053859;28;20036;-65
2022/05/04 00:45:31;;;;;;;6.70;4.07;;;15.40;74.60;;;;;;5054048;28;20022;-65
2022/05/04 00:47:56;;;;;;;8.20;4.38;;;15.40;74.40;;;;;;5053999;28;20087;-65
2022/05/04 00:50:22;;;;;;;7.82;3.58;;;15.30;74.40;;;;;;5053845;28;20033;-65
2022/05/04 00:52:52;;;;;;;6.03;3.78;;;15.20;74.10;;;;;;5053833;28;20500;-65
2022/05/04 00:55:19;;;;;;;6.10;3.78;;;15.20;74.30;;;;;;5053877;28;20033;-65
2022/05/04 01:00:30;;;;;;;8.95;4.43;;;15.10;74.80;;;;;;5051237;28;20135;-66
2022/05/04 01:02:56;;;;;;;4.90;3.50;;;15.00;75.30;;;;;;5051070;28;20104;-66
2022/05/04 01:05:21;;;;;;;8.13;4.72;;;15.00;75.50;;;;;;5052549;28;20112;-65
2022/05/04 01:07:47;;;;;;;9.48;3.70;;;14.90;75.50;;;;;;5053678;28;20032;-65
2022/05/04 01:10:15;;;;;;;6.50;3.90;;;14.90;75.60;;;;;;5053488;28;20128;-65
2022/05/04 01:12:53;;;;;;;5.70;4.13;;;14.90;75.90;;;;;;5053100;28;20068;-65
2022/05/04 01:15:20;;;;;;;5.70;3.95;;;14.90;75.80;;;;;;5053527;28;20039;-65
2022/05/04 01:17:47;;;;;;;6.70;3.70;;;14.80;76.20;;;;;;5053555;28;20112;-65
2022/05/04 01:20:14;;;;;;;8.48;3.63;;;14.80;76.10;;;;;;5052910;28;20041;-65
2022/05/04 01:22:40;;;;;;;5.68;3.85;;;14.80;75.80;;;;;;5053266;28;20445;-65
2022/05/04 01:25:07;;;;;;;7.18;3.92;;;14.80;75.70;;;;;;5053430;28;20033;-65
2022/05/04 01:27:33;;;;;;;6.63;4.10;;;14.80;75.90;;;;;;5053214;28;20025;-65
2022/05/04 01:29:59;;;;;;;7.32;3.85;;;14.80;75.90;;;;;;5053348;28;20033;-65
2022/05/04 01:32:25;;;;;;;6.43;3.80;;;14.70;75.80;;;;;;5052806;28;20059;-65
2022/05/04 01:34:51;;;;;;;4.82;3.90;;;14.70;75.00;;;;;;5053212;28;20057;-67
2022/05/04 01:37:17;;;;;;;8.23;3.60;;;14.70;74.90;;;;;;5052781;28;20048;-67
2022/05/04 01:39:43;;;;;;;9.85;3.50;;;14.70;74.70;;;;;;5053043;28;20045;-65
2022/05/04 01:42:16;;;;;;;9.18;3.85;;;14.70;74.30;;;;;;5053028;28;20029;-66
2022/05/04 01:44:43;;;;;;;10.25;3.50;;;14.70;74.00;;;;;;5052468;28;20547;-65
2022/05/04 01:47:09;;;;;;;5.50;3.08;;;14.80;73.80;;;;;;5052609;28;20516;-65
2022/05/04 01:49:35;;;;;;;5.72;3.65;;;14.70;73.60;;;;;;5052975;28;20025;-65
2022/05/04 01:52:01;;;;;;;9.48;4.05;;;14.70;73.90;;;;;;5052979;28;20450;-65
2022/05/04 01:54:27;;;;;;;4.72;3.40;;;14.60;74.90;;;;;;5053153;28;20032;-65
2022/05/04 01:56:52;;;;;;;6.35;3.20;;;14.50;75.20;;;;;;5035286;28;20394;-65
2022/05/04 01:59:18;;;;;;;4.88;3.55;;;14.50;75.10;;;;;;5052620;28;20036;-65
2022/05/04 02:01:44;;;;;;;6.78;3.72;;;14.50;75.20;;;;;;5052541;28;20445;-67
2022/05/04 02:04:10;;;;;;;6.05;3.20;;;14.50;75.10;;;;;;5053083;28;20033;-65
2022/05/04 02:06:37;;;;;;;4.38;3.70;;;14.50;75.00;;;;;;5052812;28;20033;-66
2022/05/04 02:09:04;;;;;;;6.28;3.90;;;14.50;74.80;;;;;;5052381;28;20053;-65
2022/05/04 02:11:32;;;;;;;10.23;3.90;;;14.50;74.80;;;;;;5052561;28;20413;-65
2022/05/04 02:13:58;;;;;;;5.32;3.42;;;14.50;74.80;;;;;;5052692;28;20500;-65
2022/05/04 02:16:24;;;;;;;9.55;4.18;;;14.40;74.90;;;;;;5052717;28;20041;-65
2022/05/04 02:18:49;;;;;;;9.70;3.58;;;14.40;75.30;;;;;;5052790;28;20106;-66
2022/05/04 02:21:16;;;;;;;5.25;3.50;;;14.40;75.40;;;;;;5052665;28;20393;-65
2022/05/04 02:23:42;;;;;;;4.65;3.70;;;14.30;75.00;;;;;;5052474;28;20045;-65
2022/05/04 02:26:07;;;;;;;6.90;3.78;;;14.30;75.30;;;;;;5052533;28;20400;-65
2022/05/04 02:28:33;;;;;;;7.60;3.35;;;14.30;74.90;;;;;;5052444;28;20037;-65
2022/05/04 02:30:59;;;;;;;5.47;3.70;;;14.30;75.20;;;;;;5052645;28;20300;-66
2022/05/04 02:33:24;;;;;;;6.55;3.38;;;14.30;76.00;;;;;;5052401;28;20037;-66
2022/05/04 02:38:35;;;;;;;5.03;3.97;;;14.20;76.20;;;;;;5052292;28;20102;-65
2022/05/04 02:41:00;;;;;;;8.27;3.78;;;14.10;76.50;;;;;;5052526;28;20029;-65
2022/05/04 02:43:28;;;;;;;5.10;4.00;;;14.10;76.80;;;;;;5052554;28;20515;-65
2022/05/04 02:45:54;;;;;;;10.32;3.97;;;14.10;76.60;;;;;;5052336;28;20163;-65
2022/05/04 02:48:20;;;;;;;19.10;4.45;;;14.10;76.20;;;;;;5052229;28;20036;-65
2022/05/04 02:50:46;;;;;;;8.30;4.30;;;14.10;76.10;;;;;;5051984;28;20537;-65
2022/05/04 02:53:12;;;;;;;7.38;3.45;;;14.10;75.90;;;;;;5052361;28;20121;-65
2022/05/04 02:55:38;;;;;;;6.55;3.85;;;14.10;75.90;;;;;;5052191;28;20397;-65
2022/05/04 02:58:04;;;;;;;7.57;3.92;;;14.10;75.90;;;;;;5053944;28;20170;-66
2022/05/04 03:00:30;;;;;;;5.65;3.70;;;14.10;75.90;;;;;;5055989;28;20056;-65
2022/05/04 03:02:56;;;;;;;12.05;3.40;;;14.00;76.40;;;;;;5056605;28;20112;-65
2022/05/04 03:05:22;;;;;;;15.63;4.18;;;14.10;76.40;;;;;;5056031;28;20067;-65
2022/05/04 03:07:48;;;;;;;19.63;3.70;;;14.10;76.20;;;;;;5056152;28;20041;-65
2022/05/04 03:10:14;;;;;;;11.05;3.30;;;14.00;75.90;;;;;;5055937;28;20033;-65
2022/05/04 03:12:41;;;;;;;9.32;3.33;;;14.00;75.90;;;;;;5056094;28;20044;-65
2022/05/04 03:15:07;;;;;;;12.45;3.33;;;14.00;75.00;;;;;;5055973;28;20099;-65
2022/05/04 03:17:33;;;;;;;15.45;3.78;;;14.00;75.00;;;;;;5055770;28;20508;-65
2022/05/04 03:20:00;;;;;;;15.95;3.58;;;14.00;74.70;;;;;;5055768;28;20056;-65
2022/05/04 03:22:25;;;;;;;6.88;3.45;;;14.00;74.50;;;;;;5055445;28;20143;-65
2022/05/04 03:24:52;;;;;;;11.40;3.28;;;14.00;74.40;;;;;;5055552;28;20069;-65
2022/05/04 03:27:17;;;;;;;5.30;2.95;;;14.00;74.20;;;;;;5055559;28;20044;-65
2022/05/04 03:29:43;;;;;;;8.15;3.13;;;13.90;74.50;;;;;;5055255;28;20037;-65
2022/05/04 03:32:10;;;;;;;6.63;3.20;;;13.90;74.80;;;;;;5055449;28;20496;-65
2022/05/04 03:34:36;;;;;;;5.85;3.00;;;13.90;74.40;;;;;;5055588;28;20117;-65
2022/05/04 03:37:02;;;;;;;11.35;3.70;;;13.90;74.40;;;;;;5055652;28;20033;-65
2022/05/04 03:39:28;;;;;;;8.15;3.78;;;13.80;75.00;;;;;;5054774;28;20041;-65
2022/05/04 03:41:54;;;;;;;8.27;2.97;;;13.80;75.40;;;;;;5055589;28;20395;-65
2022/05/04 03:44:20;;;;;;;5.15;2.92;;;13.80;75.00;;;;;;5055475;28;20033;-65
2022/05/04 03:46:46;;;;;;;9.07;3.38;;;13.70;74.80;;;;;;5055327;28;20485;-64
2022/05/04 03:49:15;;;;;;;5.05;2.88;;;13.80;74.80;;;;;;5054891;28;20083;-65
2022/05/04 03:51:41;;;;;;;9.38;2.83;;;13.70;74.40;;;;;;5055163;28;20512;-65
2022/05/04 03:54:08;;;;;;;8.48;3.22;;;13.70;74.40;;;;;;5055438;28;20041;-66
2022/05/04 03:56:34;;;;;;;6.88;2.80;;;13.70;74.50;;;;;;5055179;28;20043;-65
2022/05/04 03:59:01;;;;;;;10.52;3.00;;;13.70;75.30;;;;;;5055197;28;20144;-65
2022/05/04 04:01:26;;;;;;;5.50;2.70;;;13.60;75.30;;;;;;5055225;28;20025;-64
2022/05/04 04:03:52;;;;;;;7.15;2.63;;;13.60;75.10;;;;;;5055163;28;20445;-64
2022/05/04 04:06:18;;;;;;;4.90;2.85;;;13.60;74.80;;;;;;5054649;28;20477;-65
2022/05/04 04:08:43;;;;;;;4.78;2.67;;;13.60;74.50;;;;;;5054325;28;20037;-67
2022/05/04 04:11:10;;;;;;;5.47;2.92;;;13.70;74.30;;;;;;5054551;28;20029;-65
2022/05/04 04:13:37;;;;;;;9.85;3.25;;;13.70;74.30;;;;;;5054678;28;20065;-65
2022/05/04 04:16:03;;;;;;;9.27;3.10;;;13.70;74.30;;;;;;5054640;28;20033;-67
2022/05/04 04:18:28;;;;;;;8.30;3.00;;;13.70;74.40;;;;;;5054269;28;20104;-65
2022/05/04 04:23:39;;;;;;;7.00;3.63;;;13.70;74.40;;;;;;5054427;28;20106;-64
2022/05/04 04:26:06;;;;;;;9.05;3.25;;;13.60;74.50;;;;;;5054833;28;20516;-65
2022/05/04 04:28:34;;;;;;;12.80;4.70;;;13.70;74.50;;;;;;5054546;28;20448;-67
2022/05/04 04:31:00;;;;;;;6.90;3.08;;;13.70;74.40;;;;;;5054509;28;20033;-66
2022/05/04 04:33:29;;;;;;;7.50;3.30;;;13.60;74.40;;;;;;5054437;28;20063;-67
2022/05/04 04:35:55;;;;;;;7.07;3.20;;;13.60;74.60;;;;;;5054239;28;20048;-65
2022/05/04 04:38:21;;;;;;;19.83;3.50;;;13.60;75.00;;;;;;5054343;28;20036;-65
2022/05/04 04:40:47;;;;;;;22.65;3.70;;;13.60;75.10;;;;;;5054383;28;20601;-65
2022/05/04 04:43:15;;;;;;;23.08;4.57;;;13.50;75.00;;;;;;5054342;28;20047;-68
2022/05/04 04:45:43;;;;;;;26.17;4.90;;;13.50;75.30;;;;;;5053904;28;20477;-67
2022/05/04 04:48:09;;;;;;;23.92;5.80;;;13.50;75.40;;;;;;5054113;28;20037;-65
2022/05/04 04:50:35;;;;;;;31.95;7.20;;;13.50;75.10;;;;;;5053573;28;20029;-65
2022/05/04 04:53:01;;;;;;;33.47;8.93;;;13.50;75.10;;;;;;5053565;28;20033;-66
2022/05/04 04:55:27;;;;;;;41.88;10.55;;;13.50;75.30;;;;;;5053605;28;20106;-66
2022/05/04 04:57:52;;;;;;;39.08;9.52;;;13.50;75.40;;;;;;5053887;28;20029;-66
2022/05/04 05:00:20;;;;;;;37.28;9.80;;;13.60;74.80;;;;;;5052043;28;20553;-69
2022/05/04 05:02:45;;;;;;;39.28;9.25;;;13.60;74.50;;;;;;5053196;28;20037;-65
2022/05/04 05:05:11;;;;;;;27.58;8.23;;;13.60;74.80;;;;;;5053284;28;20579;-64
2022/05/04 05:07:38;;;;;;;26.73;5.25;;;13.60;75.00;;;;;;5053072;28;20033;-66
2022/05/04 05:10:07;;;;;;;21.63;5.03;;;13.70;74.80;;;;;;5052051;28;20311;-67
2022/05/04 05:12:33;;;;;;;14.80;5.20;;;13.70;74.50;;;;;;5052760;28;20032;-66
2022/05/04 05:17:43;;;;;;;8.35;4.22;;;13.70;75.50;;;;;;5052439;28;20028;-68
2022/05/04 05:20:10;;;;;;;14.95;4.90;;;13.70;75.60;;;;;;5051001;28;20041;-67
2022/05/04 05:22:35;;;;;;;13.00;5.15;;;13.70;75.70;;;;;;5053041;28;20064;-68
2022/05/04 05:25:01;;;;;;;11.02;5.32;;;13.80;75.70;;;;;;5053149;28;20045;-66
2022/05/04 05:27:30;;;;;;;15.65;5.90;;;13.80;76.00;;;;;;5053107;28;20400;-67
2022/05/04 05:29:56;;;;;;;15.15;6.07;;;13.90;76.70;;;;;;5052317;28;20044;-66
2022/05/04 05:32:22;;;;;;;17.55;4.68;;;13.90;77.20;;;;;;5053546;28;20036;-66
2022/05/04 05:34:48;;;;;;;17.42;5.18;;;14.00;77.30;;;;;;5053457;28;20041;-66
2022/05/04 05:37:13;;;;;;;10.93;3.45;;;14.00;77.60;;;;;;5053160;28;20444;-67
2022/05/04 05:39:40;;;;;;;6.38;3.40;;;14.10;77.20;;;;;;5052095;28;20053;-67
2022/05/04 05:42:07;;;;;;;7.47;3.28;;;14.10;77.00;;;;;;5052877;28;20032;-66
2022/05/04 05:44:32;;;;;;;5.72;2.92;;;14.20;76.50;;;;;;5052569;28;20481;-67
2022/05/04 05:46:58;;;;;;;6.05;3.28;;;14.30;76.50;;;;;;5053037;28;20036;-66
2022/05/04 05:49:24;;;;;;;4.60;2.60;;;14.40;76.50;;;;;;5053083;28;20499;-66
2022/05/04 05:51:49;;;;;;;5.22;2.40;;;14.50;76.20;;;;;;5053178;28;20036;-66
2022/05/04 05:54:15;;;;;;;6.93;2.53;;;14.50;75.80;;;;;;5052122;28;20096;-65
2022/05/04 05:56:41;;;;;;;6.90;3.03;;;14.60;75.10;;;;;;5052736;28;20087;-69
2022/05/04 05:59:06;;;;;;;171.70;9.98;;;14.70;75.30;;;;;;5052876;28;20118;-70
2022/05/04 06:01:32;;;;;;;6.05;2.72;;;14.80;75.40;;;;;;5052988;28;20029;-68
2022/05/04 06:03:57;;;;;;;5.22;2.75;;;14.90;75.00;;;;;;5053084;28;20025;-69
2022/05/04 06:06:23;;;;;;;9.65;3.22;;;14.90;74.20;;;;;;5052656;28;20029;-69
2022/05/04 06:08:49;;;;;;;5.68;3.20;;;15.10;73.50;;;;;;5052360;28;20044;-68
2022/05/04 06:11:14;;;;;;;14.73;3.30;;;15.10;72.90;;;;;;5052989;28;20033;-70
2022/05/04 06:13:40;;;;;;;9.45;3.63;;;15.20;73.10;;;;;;5052718;28;20029;-67
2022/05/04 06:16:06;;;;;;;5.43;2.90;;;15.30;73.70;;;;;;5052786;28;20065;-70
2022/05/04 06:18:31;;;;;;;7.43;2.97;;;15.30;73.70;;;;;;5050984;28;20048;-70
2022/05/04 06:21:00;;;;;;;9.35;3.40;;;15.40;73.70;;;;;;5052506;28;20068;-72
2022/05/04 06:23:26;;;;;;;6.00;3.00;;;15.50;73.30;;;;;;5028325;28;20049;-71
2022/05/04 06:25:52;;;;;;;12.45;3.35;;;15.50;73.50;;;;;;5032510;28;20029;-72
2022/05/04 06:28:17;;;;;;;8.73;3.47;;;15.70;73.50;;;;;;5032619;28;20068;-73
2022/05/04 06:36:11;;;;;;;14.90;3.88;;;15.80;74.20;;;;;;5036454;28;20040;-72
2022/05/04 06:38:37;;;;;;;11.43;3.17;;;15.90;74.20;;;;;;5036203;28;20030;-75
2022/05/04 06:41:05;;;;;;;6.82;3.80;;;16.00;74.10;;;;;;5036340;28;20041;-73
2022/05/04 06:43:32;;;;;;;6.88;3.15;;;16.00;74.30;;;;;;5035864;28;20095;-74
2022/05/04 06:45:58;;;;;;;6.55;3.38;;;16.10;74.30;;;;;;5036045;28;20095;-73
2022/05/04 06:48:24;;;;;;;13.85;3.50;;;16.10;73.70;;;;;;5027786;28;20074;-72
2022/05/04 06:50:49;;;;;;;7.57;3.30;;;16.20;73.00;;;;;;5036839;28;20037;-73
2022/05/04 06:53:15;;;;;;;12.43;3.53;;;16.30;72.60;;;;;;5036574;28;20110;-73
2022/05/04 06:55:40;;;;;;;7.22;3.00;;;16.40;72.70;;;;;;5036199;28;20044;-72
2022/05/04 06:58:06;;;;;;;13.98;3.90;;;16.40;71.70;;;;;;5036408;28;20040;-71
2022/05/04 07:00:32;;;;;;;6.65;2.75;;;16.50;71.40;;;;;;5035864;28;20099;-71
2022/05/04 07:02:57;;;;;;;8.57;2.95;;;16.50;71.20;;;;;;5043392;28;20040;-72
2022/05/04 07:05:23;;;;;;;5.28;2.58;;;16.60;70.90;;;;;;5035978;28;20041;-72
2022/05/04 07:07:49;;;;;;;4.53;2.80;;;16.60;70.60;;;;;;5035759;28;20033;-72
2022/05/04 07:10:15;;;;;;;7.70;2.30;;;16.60;69.90;;;;;;5035943;28;20041;-73
2022/05/04 07:12:40;;;;;;;5.32;2.83;;;16.70;69.00;;;;;;5035460;28;20394;-74
2022/05/04 07:15:06;;;;;;;11.77;2.47;;;16.70;68.70;;;;;;5036170;28;20068;-73
2022/05/04 07:17:32;;;;;;;13.32;2.92;;;16.70;68.80;;;;;;5035724;28;20025;-73
2022/05/04 07:19:58;;;;;;;6.57;2.58;;;16.80;68.80;;;;;;5035849;28;20449;-73
2022/05/04 07:22:23;;;;;;;6.93;2.67;;;16.80;68.40;;;;;;5036174;28;20076;-73
2022/05/04 07:24:50;;;;;;;5.57;2.40;;;16.90;68.10;;;;;;5035965;28;20045;-73
2022/05/04 07:27:16;;;;;;;6.93;2.63;;;16.90;68.10;;;;;;5035803;28;20501;-73
2022/05/04 07:29:46;;;;;;;7.25;2.83;;;17.00;68.00;;;;;;5035934;28;20123;-73
2022/05/04 07:32:12;;;;;;;6.30;2.88;;;17.00;68.60;;;;;;5035680;28;20068;-73
2022/05/04 07:34:40;;;;;;;6.47;2.70;;;17.10;68.60;;;;;;5035879;28;20025;-73
2022/05/04 07:37:05;;;;;;;7.75;3.38;;;17.10;68.30;;;;;;5035565;28;20041;-73
2022/05/04 07:42:26;;;;;;;9.63;2.88;;;17.20;68.00;;;;;;5035595;28;20040;-73
2022/05/04 07:45:08;;;;;;;7.55;2.88;;;17.30;67.90;;;;;;5033542;28;20030;-73
2022/05/04 07:47:35;;;;;;;4.10;2.78;;;17.40;67.80;;;;;;5031712;28;20044;-73
2022/05/04 07:50:06;;;;;;;7.82;3.22;;;17.40;67.70;;;;;;5035440;28;20076;-73
2022/05/04 07:52:32;;;;;;;5.68;2.83;;;17.40;67.30;;;;;;5035220;28;20037;-73
2022/05/04 07:54:58;;;;;;;7.70;2.78;;;17.50;66.90;;;;;;5035286;28;20029;-74
2022/05/04 07:57:24;;;;;;;4.55;2.53;;;17.60;66.70;;;;;;5035306;28;20030;-74
2022/05/04 08:05:21;;;;;;;5.78;2.75;;;17.70;64.30;;;;;;5035403;28;20040;-73
2022/05/04 08:07:47;;;;;;;9.98;2.50;;;17.80;64.00;;;;;;5034767;28;20116;-73
2022/05/04 08:10:13;;;;;;;5.03;2.50;;;17.90;63.60;;;;;;5035657;28;20033;-73
2022/05/04 08:12:39;;;;;;;5.85;2.38;;;17.90;63.20;;;;;;5034847;28;20048;-73
2022/05/04 08:15:05;;;;;;;7.78;2.17;;;18.00;63.20;;;;;;5034886;28;20092;-74
2022/05/04 08:17:31;;;;;;;3.65;2.10;;;18.10;64.20;;;;;;5035143;28;20034;-73
2022/05/04 08:19:58;;;;;;;5.50;1.75;;;18.10;61.70;;;;;;5034692;28;20060;-73
2022/05/04 08:22:23;;;;;;;3.05;2.08;;;18.20;60.00;;;;;;5034451;28;20081;-73
2022/05/04 08:24:49;;;;;;;15.25;2.00;;;18.30;59.50;;;;;;5034727;28;20076;-74
2022/05/04 08:27:15;;;;;;;9.90;2.80;;;18.30;59.50;;;;;;5034966;28;20540;-73
2022/05/04 08:29:40;;;;;;;13.07;3.72;;;18.40;60.00;;;;;;5034977;28;20025;-73
2022/05/04 08:32:06;;;;;;;10.05;2.92;;;18.40;60.10;;;;;;5034699;28;20073;-72
2022/05/04 08:34:32;;;;;;;8.15;2.30;;;18.50;60.40;;;;;;5034411;28;20048;-72
2022/05/04 08:36:58;;;;;;;7.22;2.55;;;18.60;60.90;;;;;;5034415;28;20124;-72
2022/05/04 08:39:23;;;;;;;3.85;2.10;;;18.70;59.00;;;;;;5034424;28;20041;-72
2022/05/04 08:41:51;;;;;;;6.85;1.80;;;18.70;58.80;;;;;;5034484;28;20029;-72
2022/05/04 08:44:16;;;;;;;4.57;2.45;;;18.80;58.80;;;;;;5034917;28;20112;-72
2022/05/04 08:46:43;;;;;;;4.85;2.03;;;18.90;58.40;;;;;;5034263;28;20065;-70
2022/05/04 08:49:13;;;;;;;4.65;2.03;;;18.90;56.70;;;;;;5034259;28;20034;-77
2022/05/04 08:51:41;;;;;;;4.60;1.98;;;19.00;56.80;;;;;;5034319;28;20065;-71
2022/05/04 08:54:08;;;;;;;3.25;2.10;;;19.00;56.70;;;;;;5033907;28;20037;-72
2022/05/04 08:56:35;;;;;;;5.38;2.10;;;19.10;57.90;;;;;;5033351;28;20493;-72
2022/05/04 08:59:05;;;;;;;7.28;2.40;;;19.20;56.90;;;;;;5033819;28;20509;-72
2022/05/04 09:01:39;;;;;;;6.25;2.17;;;19.30;56.30;;;;;;5034154;28;20044;-77
2022/05/04 09:04:06;;;;;;;5.70;2.30;;;19.30;57.10;;;;;;5034191;28;20040;-70
2022/05/04 09:06:34;;;;;;;4.32;2.00;;;19.40;56.90;;;;;;5033750;28;20033;-71
2022/05/04 09:09:08;;;;;;;6.93;2.10;;;19.50;57.30;;;;;;5034066;28;20402;-70
2022/05/04 09:11:37;;;;;;;3.38;2.05;;;19.50;56.20;;;;;;5034196;28;20091;-70
2022/05/04 09:14:10;;;;;;;3.72;2.20;;;19.60;55.30;;;;;;5033993;28;20041;-71
2022/05/04 09:16:36;;;;;;;9.65;2.50;;;19.60;55.20;;;;;;5033824;28;20069;-71
2022/05/04 09:19:06;;;;;;;2.70;2.10;;;19.60;57.10;;;;;;5033520;28;20450;-71
2022/05/04 09:21:32;;;;;;;11.02;2.45;;;19.80;55.40;;;;;;5033684;28;20036;-71
2022/05/04 09:23:58;;;;;;;6.22;2.33;;;19.80;56.50;;;;;;5033468;28;20046;-71
2022/05/04 09:26:23;;;;;;;3.65;2.22;;;19.90;55.70;;;;;;5033525;28;20033;-70
2022/05/04 09:29:00;;;;;;;4.97;1.95;;;20.00;55.70;;;;;;5033593;28;20036;-71
2022/05/04 09:31:30;;;;;;;8.02;2.67;;;20.10;55.30;;;;;;5033602;28;20126;-71
2022/05/04 09:34:02;;;;;;;6.95;1.98;;;20.20;57.10;;;;;;5033638;28;20528;-70
2022/05/04 09:36:33;;;;;;;3.22;2.42;;;20.30;57.20;;;;;;5033014;28;20065;-70
2022/05/04 09:45:17;;;;;;;6.00;2.50;;;20.50;56.40;;;;;;5033276;28;20033;-70
2022/05/04 09:47:45;;;;;;;5.53;2.90;;;20.60;55.20;;;;;;5032853;28;20367;-70
2022/05/04 09:50:15;;;;;;;3.63;2.50;;;20.60;54.40;;;;;;5032223;28;20034;-71
2022/05/04 09:52:42;;;;;;;3.55;2.10;;;20.60;54.40;;;;;;5032504;28;20385;-70
2022/05/04 09:55:18;;;;;;;6.07;2.58;;;20.70;54.00;;;;;;5031901;28;20037;-71
2022/05/04 09:57:45;;;;;;;6.28;2.42;;;20.70;54.60;;;;;;5032325;28;20034;-71
2022/05/04 10:00:15;;;;;;;6.93;2.42;;;20.70;55.30;;;;;;5032258;28;20538;-70
2022/05/04 10:02:44;;;;;;;5.15;2.25;;;;;;;;;;5031939;28;20421;-71
2022/05/04 10:05:10;;;;;;;5.22;2.65;;;;;;;;;;5031778;28;20441;-70
2022/05/04 10:07:37;;;;;;;3.33;2.13;;;;;;;;;;5031466;28;20052;-71
2022/05/04 10:10:07;;;;;;;6.45;2.28;;;;;;;;;;5032769;28;20459;-71
2022/05/04 10:12:38;;;;;;;4.25;2.17;;;;;;;;;;5032777;28;20041;-71
2022/05/04 10:15:07;;;;;;;5.90;2.63;;;;;;;;;;5032470;28;20051;-71
2022/05/04 10:17:35;;;;;;;5.95;2.53;;;;;;;;;;5032661;28;20033;-71
2022/05/04 10:20:11;;;;;;;6.45;2.85;;;;;;;;;;5032494;28;20494;-70
2022/05/04 10:22:40;;;;;;;5.35;2.22;;;;;;;;;;5032465;28;20099;-70
2022/05/04 10:25:06;;;;;;;6.80;3.22;;;;;;;;;;5032303;28;20033;-70
2022/05/04 10:27:37;;;;;;;5.28;2.35;;;;;;;;;;5031830;28;20501;-71
2022/05/04 10:32:51;;;;;;;19.95;3.05;;;;;;;;;;5032108;28;20057;-72
2022/05/04 10:35:17;;;;;;;6.18;2.00;;;;;;;;;;5032157;28;20029;-71
2022/05/04 10:37:58;;;;;;;9.30;2.65;;;;;;;;;;5033014;28;20048;-71
2022/05/04 10:40:27;;;;;;;7.43;2.50;;;;;;;;;;5030885;28;20445;-71
2022/05/04 10:42:56;;;;;;;7.28;2.60;;;;;;;;;;5030936;28;20032;-72
2022/05/04 10:45:24;;;;;;;6.47;2.38;;;;;;;;;;5029940;28;20033;-71
2022/05/04 10:47:50;;;;;;;11.30;3.10;;;;;;;;;;5029810;28;20038;-71
2022/05/04 10:50:19;;;;;;;4.30;2.38;;;;;;;;;;5029617;28;20293;-70
2022/05/04 10:52:48;;;;;;;6.40;2.60;;;;;;;;;;5032277;28;20053;-72
2022/05/04 10:55:14;;;;;;;7.15;2.50;;;;;;;;;;5032723;28;20030;-71
2022/05/04 10:57:41;;;;;;;5.53;2.40;;;;;;;;;;5032417;28;20037;-71
2022/05/04 11:00:10;;;;;;;5.38;2.53;;;;;;;;;;5032471;28;20068;-72
2022/05/04 11:02:36;;;;;;;5.20;2.42;;;;;;;;;;5032728;28;20030;-72
2022/05/04 11:05:11;;;;;;;5.47;2.28;;;;;;;;;;5032130;28;20040;-71
2022/05/04 11:07:37;;;;;;;5.80;2.35;;;;;;;;;;5032179;28;20037;-72
2022/05/04 11:10:04;;;;;;;4.72;2.22;;;;;;;;;;5032064;28;20113;-71
2022/05/04 11:12:30;;;;;;;4.78;2.35;;;;;;;;;;5031928;28;20061;-72
2022/05/04 11:14:56;;;;;;;7.28;3.33;;;;;;;;;;5030811;28;20041;-72
2022/05/04 11:17:22;;;;;;;8.07;2.80;;;;;;;;;;5030350;28;20040;-72
2022/05/04 11:19:48;;;;;;;6.57;2.58;;;;;;;;;;5032871;28;20045;-72
2022/05/04 11:22:15;;;;;;;5.45;2.50;;;;;;;;;;5032919;28;20049;-72
2022/05/04 11:24:43;;;;;;;10.32;3.10;;;;;;;;;;5033544;28;20034;-73
2022/05/04 11:27:09;;;;;;;8.77;2.53;;;;;;;;;;5034369;28;20061;-72
2022/05/04 11:29:35;;;;;;;5.72;2.50;;;;;;;;;;5034365;28;20044;-71
2022/05/04 11:32:03;;;;;;;14.50;3.42;;;;;;;;;;5034783;28;20022;-72
2022/05/04 11:34:30;;;;;;;12.90;2.47;;;;;;;;;;5034420;28;20041;-72
2022/05/04 11:36:57;;;;;;;8.90;2.42;;;;;;;;;;5034713;28;20506;-72
2022/05/04 11:39:25;;;;;;;4.22;2.22;;;;;;;;;;5034166;28;20038;-73
2022/05/04 11:41:52;;;;;;;4.70;2.20;;;;;;;;;;5034081;28;20034;-72
2022/05/04 11:44:18;;;;;;;3.28;2.00;;;;;;;;;;5034413;28;20048;-72
2022/05/04 11:46:45;;;;;;;3.92;2.33;;;;;;;;;;5034540;28;20029;-72
2022/05/04 11:49:12;;;;;;;8.30;2.20;;;;;;;;;;5034290;28;20218;-71
2022/05/04 11:51:38;;;;;;;6.60;2.03;;;;;;;;;;5034194;28;20041;-71
2022/05/04 11:54:04;;;;;;;7.80;2.50;;;;;;;;;;5034747;28;20033;-73
2022/05/04 11:56:30;;;;;;;7.88;2.80;;;;;;;;;;5034222;28;20033;-71
2022/05/04 11:58:57;;;;;;;5.85;1.92;;;;;;;;;;5034394;28;20482;-71
2022/05/04 12:01:24;;;;;;;6.80;2.30;;;;;;;;;;5033894;28;20038;-71
2022/05/04 12:03:50;;;;;;;8.13;2.75;;;;;;;;;;5034029;28;20029;-73
2022/05/04 12:06:17;;;;;;;7.43;2.85;;;;;;;;;;5033852;28;20053;-73
2022/05/04 12:08:43;;;;;;;7.90;1.95;;;;;;;;;;5033598;28;20046;-72
2022/05/04 12:11:09;;;;;;;3.85;2.00;;;;;;;;;;5034115;28;20095;-73
2022/05/04 12:13:44;;;;;;;5.50;1.95;;;;;;;;;;5031586;28;20128;-69
2022/05/04 12:16:11;;;;;;;7.47;2.20;;;;;;;;;;5030818;28;20044;-69
2022/05/04 12:18:38;;;;;;;5.97;2.33;;;;;;;;;;5031250;28;20059;-71
2022/05/04 12:21:25;;;;;;;3.95;1.85;;;;;;;;;;5033704;28;20482;-70
2022/05/04 12:23:53;;;;;;;7.47;2.33;;;;;;;;;;5033127;28;20051;-69
2022/05/04 12:26:20;;;;;;;5.60;1.92;;;;;;;;;;5033861;28;20402;-69
2022/05/04 12:33:08;;;;;;;3.20;1.88;;;;;;;;;;5033504;28;20037;-71
2022/05/04 12:34:17;;;;;;;6.70;1.95;;;;;;;;;;5033494;28;20072;-70
2022/05/04 12:36:45;;;;;;;5.78;2.20;;;;;;;;;;5033869;28;20036;-70
2022/05/04 12:39:11;;;;;;;10.05;2.10;;;;;;;;;;5033854;28;20057;-70
2022/05/04 12:41:37;;;;;;;10.25;2.40;;;;;;;;;;5033613;28;20037;-69
2022/05/04 12:44:06;;;;;;;7.00;2.20;;;;;;;;;;5033295;28;20455;-70
2022/05/04 12:46:33;;;;;;;9.70;2.08;;;;;;;;;;5033789;28;20072;-70
2022/05/04 12:48:59;;;;;;;5.28;2.05;;;;;;;;;;5033412;28;20042;-70
2022/05/04 12:51:25;;;;;;;6.93;2.20;;;;;;;;;;5033089;28;20038;-70
2022/05/04 12:53:52;;;;;;;7.18;2.45;;;;;;;;;;5033701;28;20026;-70
2022/05/04 12:59:04;;;;;;;10.27;2.88;;;;;;;;;;5033057;28;20566;-68
2022/05/04 13:01:36;;;;;;;5.57;2.10;;;;;;;;;;5033288;28;20113;-70
2022/05/04 13:04:02;;;;;;;7.82;2.60;;;;;;;;;;5032548;28;20488;-70
2022/05/04 13:06:28;;;;;;;5.53;2.40;;;;;;;;;;5032078;28;20029;-69
2022/05/04 13:08:55;;;;;;;6.72;2.50;;;;;;;;;;5032550;28;20037;-69
2022/05/04 13:11:22;;;;;;;8.75;2.35;;;;;;;;;;5032281;28;20064;-70
2022/05/04 13:13:48;;;;;;;6.10;2.00;;;;;;;;;;5031911;28;20041;-71
2022/05/04 13:16:15;;;;;;;12.02;3.15;;;;;;;;;;5032535;28;20032;-69
2022/05/04 13:18:41;;;;;;;4.95;2.40;;;;;;;;;;5031706;28;20044;-69
2022/05/04 13:21:07;;;;;;;14.60;4.65;;;;;;;;;;5031683;28;20043;-69
2022/05/04 13:23:34;;;;;;;10.15;2.83;;;;;;;;;;5031444;28;20371;-69
2022/05/04 13:26:00;;;;;;;3.00;1.77;;;;;;;;;;5031988;28;20048;-70
2022/05/04 13:28:31;;;;;;;116.50;8.15;;;;;;;;;;5031657;28;20033;-74
2022/05/04 13:30:59;;;;;;;372.02;59.60;;;;;;;;;;5032074;28;20052;-72
2022/05/04 13:33:26;;;;;;;53.97;7.97;;;;;;;;;;5030854;28;20036;-69
2022/05/04 13:35:52;;;;;;;2.78;1.83;;;;;;;;;;5029051;28;20041;-73
2022/05/04 13:38:18;;;;;;;7.85;2.08;;;;;;;;;;5029211;28;20462;-76
2022/05/04 13:40:44;;;;;;;4.43;1.80;;;;;;;;;;5030132;28;20041;-75
2022/05/04 13:43:11;;;;;;;5.22;1.98;;;;;;;;;;5031324;28;20033;-75
2022/05/04 13:45:37;;;;;;;4.22;2.00;;;;;;;;;;5032368;28;20461;-75
2022/05/04 13:48:03;;;;;;;14.10;4.47;;;;;;;;;;5032682;28;20083;-73
2022/05/04 13:53:31;;;;;;;15.68;3.42;;;;;;;;;;4972448;28;20105;-78